Cruise inventory

RV Prince Madog PD02/09A

Cruise plan

Cruise Info. 
Ship name (ship code)RV Prince Madog (74P2)
Cruise identifierPD02/09A
Cruise period2009-02-02 — 2009-02-04
StatusCompleted
Port of departureBirkenhead, United Kingdom
Port of returnBirkenhead, United Kingdom
PurposeResearch
ObjectivesSide-scan sonar lines in Dee Estuary, multiple sea-bed grab sampling, deployment of STABLE mooring, CTD tidal cycle stations at sites in Welsh Channel and Hilbre Channel, SPM bottle samples taken during CTD dips, deployment of Mini-STABLE mooring.
Chief scientistAlejandro J Souza (Proudman Oceanographic Laboratory)
ProjectDee Experiment
Coordinating bodyPOL
Ocean/sea areas 
GeneralIrish Sea and St. George's Channel
Data held at BODC 
Series/Profiles 
94  CTD/STD cast
Raw suspended particulate material concentration sensor output
Density of the water column
Transmittance and attenuance of the water column
Visible waveband radiance and irradiance measurements in the water column
Vertical spatial coordinates
Raw fluorometer output
Salinity of the water column
Temperature of the water column
Dissolved oxygen parameters in the water column
Raw suspended particulate material concentration sensor output
Density of the water column
Transmittance and attenuance of the water column
Visible waveband radiance and irradiance measurements in the water column
Vertical spatial coordinates
Raw fluorometer output
Salinity of the water column
Temperature of the water column
Dissolved oxygen parameters in the water column

BODC idDate/TimeLocationDoc.
9309212009-02-04 08:32 53° 22' 14" N  3° 19' 54" W  View metadata report for BODC series reference number 930921
9309332009-02-04 09:01 53° 22' 14" N  3° 19' 53" W  View metadata report for BODC series reference number 930933
9309452009-02-04 09:30 53° 22' 14" N  3° 19' 54" W  View metadata report for BODC series reference number 930945
9309572009-02-04 10:01 53° 22' 14" N  3° 19' 54" W  View metadata report for BODC series reference number 930957
9309692009-02-04 10:30 53° 22' 14" N  3° 19' 54" W  View metadata report for BODC series reference number 930969
9309702009-02-04 11:01 53° 22' 14" N  3° 19' 53" W  View metadata report for BODC series reference number 930970
9309822009-02-04 11:32 53° 22' 14" N  3° 19' 53" W  View metadata report for BODC series reference number 930982
9309942009-02-04 12:03 53° 22' 15" N  3° 19' 53" W  View metadata report for BODC series reference number 930994
9310082009-02-04 12:30 53° 22' 14" N  3° 19' 54" W  View metadata report for BODC series reference number 931008
9310212009-02-04 13:01 53° 22' 14" N  3° 19' 49" W  View metadata report for BODC series reference number 931021
9310332009-02-04 13:31 53° 22' 14" N  3° 19' 50" W  View metadata report for BODC series reference number 931033
9310452009-02-04 14:01 53° 22' 13" N  3° 19' 50" W  View metadata report for BODC series reference number 931045
9300052009-02-02 11:00 53° 22' 23" N  3° 14' 9" W  View metadata report for BODC series reference number 930005
9300172009-02-02 11:31 53° 22' 23" N  3° 14' 8" W  View metadata report for BODC series reference number 930017
9300292009-02-02 12:04 53° 22' 23" N  3° 14' 7" W  View metadata report for BODC series reference number 930029
9300302009-02-02 12:31 53° 22' 23" N  3° 14' 7" W  View metadata report for BODC series reference number 930030
9300422009-02-02 13:02 53° 22' 23" N  3° 14' 7" W  View metadata report for BODC series reference number 930042
9300542009-02-02 13:32 53° 22' 23" N  3° 14' 7" W  View metadata report for BODC series reference number 930054
9300662009-02-02 14:02 53° 22' 23" N  3° 14' 7" W  View metadata report for BODC series reference number 930066
9300782009-02-02 14:31 53° 22' 23" N  3° 14' 7" W  View metadata report for BODC series reference number 930078
9300912009-02-02 15:02 53° 22' 23" N  3° 14' 9" W  View metadata report for BODC series reference number 930091
9301092009-02-02 15:30 53° 22' 23" N  3° 14' 10" W  View metadata report for BODC series reference number 930109
9301102009-02-02 16:01 53° 22' 23" N  3° 14' 11" W  View metadata report for BODC series reference number 930110
9301222009-02-02 16:31 53° 22' 23" N  3° 14' 11" W  View metadata report for BODC series reference number 930122
9301342009-02-02 17:01 53° 22' 28" N  3° 14' 8" W  View metadata report for BODC series reference number 930134
9301462009-02-02 18:32 53° 22' 28" N  3° 14' 5" W  View metadata report for BODC series reference number 930146
9301582009-02-02 19:00 53° 22' 28" N  3° 14' 5" W  View metadata report for BODC series reference number 930158
9301712009-02-02 19:32 53° 22' 28" N  3° 14' 7" W  View metadata report for BODC series reference number 930171
9301832009-02-02 20:02 53° 22' 24" N  3° 14' 10" W  View metadata report for BODC series reference number 930183
9301952009-02-02 20:33 53° 22' 23" N  3° 14' 10" W  View metadata report for BODC series reference number 930195
9302022009-02-02 21:02 53° 22' 23" N  3° 14' 8" W  View metadata report for BODC series reference number 930202
9302142009-02-02 21:33 53° 22' 23" N  3° 14' 8" W  View metadata report for BODC series reference number 930214
9302262009-02-02 22:04 53° 22' 23" N  3° 14' 9" W  View metadata report for BODC series reference number 930226
9302382009-02-02 22:31 53° 22' 23" N  3° 14' 10" W  View metadata report for BODC series reference number 930238
9302512009-02-02 23:02 53° 22' 23" N  3° 14' 10" W  View metadata report for BODC series reference number 930251
9302632009-02-02 23:32 53° 22' 23" N  3° 14' 9" W  View metadata report for BODC series reference number 930263
9302752009-02-03 00:01 53° 22' 23" N  3° 14' 8" W  View metadata report for BODC series reference number 930275
9302872009-02-03 00:31 53° 22' 23" N  3° 14' 7" W  View metadata report for BODC series reference number 930287
9302992009-02-03 01:01 53° 22' 23" N  3° 14' 7" W  View metadata report for BODC series reference number 930299
9303062009-02-03 01:31 53° 22' 23" N  3° 14' 7" W  View metadata report for BODC series reference number 930306
9303182009-02-03 02:00 53° 22' 23" N  3° 14' 7" W  View metadata report for BODC series reference number 930318
9303312009-02-03 02:31 53° 22' 23" N  3° 14' 7" W  View metadata report for BODC series reference number 930331
9303432009-02-03 03:00 53° 22' 23" N  3° 14' 8" W  View metadata report for BODC series reference number 930343
9303552009-02-03 03:30 53° 22' 24" N  3° 14' 10" W  View metadata report for BODC series reference number 930355
9303672009-02-03 04:00 53° 22' 25" N  3° 14' 12" W  View metadata report for BODC series reference number 930367
9303792009-02-03 04:31 53° 22' 28" N  3° 14' 11" W  View metadata report for BODC series reference number 930379
9303802009-02-03 05:00 53° 22' 28" N  3° 14' 11" W  View metadata report for BODC series reference number 930380
9303922009-02-03 05:30 53° 22' 28" N  3° 14' 11" W  View metadata report for BODC series reference number 930392
9304112009-02-03 06:00 53° 22' 28" N  3° 14' 10" W  View metadata report for BODC series reference number 930411
9304232009-02-03 06:31 53° 22' 29" N  3° 14' 10" W  View metadata report for BODC series reference number 930423
9304352009-02-03 07:01 53° 22' 28" N  3° 14' 10" W  View metadata report for BODC series reference number 930435
9304472009-02-03 07:31 53° 22' 28" N  3° 14' 12" W  View metadata report for BODC series reference number 930447
9304592009-02-03 08:00 53° 22' 28" N  3° 14' 12" W  View metadata report for BODC series reference number 930459
9304602009-02-03 08:31 53° 22' 28" N  3° 14' 11" W  View metadata report for BODC series reference number 930460
9304722009-02-03 09:01 53° 22' 28" N  3° 14' 11" W  View metadata report for BODC series reference number 930472
9304842009-02-03 09:31 53° 22' 29" N  3° 14' 10" W  View metadata report for BODC series reference number 930484
9304962009-02-03 10:01 53° 22' 28" N  3° 14' 11" W  View metadata report for BODC series reference number 930496
9305032009-02-03 10:31 53° 22' 28" N  3° 14' 12" W  View metadata report for BODC series reference number 930503
9305152009-02-03 11:00 53° 22' 28" N  3° 14' 12" W  View metadata report for BODC series reference number 930515
9305272009-02-03 11:31 53° 22' 28" N  3° 14' 11" W  View metadata report for BODC series reference number 930527
9305392009-02-03 11:59 53° 22' 28" N  3° 14' 12" W  View metadata report for BODC series reference number 930539
9305402009-02-03 16:13 53° 22' 14" N  3° 19' 53" W  View metadata report for BODC series reference number 930540
9305522009-02-03 16:36 53° 22' 14" N  3° 19' 53" W  View metadata report for BODC series reference number 930552
9305642009-02-03 17:01 53° 22' 14" N  3° 19' 53" W  View metadata report for BODC series reference number 930564
9305762009-02-03 17:31 53° 22' 14" N  3° 19' 53" W  View metadata report for BODC series reference number 930576
9305882009-02-03 18:01 53° 22' 15" N  3° 19' 53" W  View metadata report for BODC series reference number 930588
9306072009-02-03 18:31 53° 22' 14" N  3° 19' 54" W  View metadata report for BODC series reference number 930607
9306192009-02-03 19:01 53° 22' 14" N  3° 19' 53" W  View metadata report for BODC series reference number 930619
9306202009-02-03 19:29 53° 22' 14" N  3° 19' 53" W  View metadata report for BODC series reference number 930620
9306322009-02-03 20:01 53° 22' 14" N  3° 19' 53" W  View metadata report for BODC series reference number 930632
9306442009-02-03 20:31 53° 22' 14" N  3° 19' 54" W  View metadata report for BODC series reference number 930644
9306562009-02-03 21:01 53° 22' 14" N  3° 19' 53" W  View metadata report for BODC series reference number 930656
9306682009-02-03 21:31 53° 22' 14" N  3° 19' 53" W  View metadata report for BODC series reference number 930668
9306812009-02-03 22:01 53° 22' 15" N  3° 19' 53" W  View metadata report for BODC series reference number 930681
9306932009-02-03 22:31 53° 22' 14" N  3° 19' 54" W  View metadata report for BODC series reference number 930693
9307002009-02-03 23:00 53° 22' 14" N  3° 19' 53" W  View metadata report for BODC series reference number 930700
9307122009-02-03 23:32 53° 22' 14" N  3° 19' 53" W  View metadata report for BODC series reference number 930712
9307242009-02-04 00:00 53° 22' 14" N  3° 19' 54" W  View metadata report for BODC series reference number 930724
9307362009-02-04 00:30 53° 22' 14" N  3° 19' 53" W  View metadata report for BODC series reference number 930736
9307482009-02-04 01:00 53° 22' 15" N  3° 19' 51" W  View metadata report for BODC series reference number 930748
9307612009-02-04 01:30 53° 22' 14" N  3° 19' 51" W  View metadata report for BODC series reference number 930761
9307732009-02-04 02:01 53° 22' 14" N  3° 19' 50" W  View metadata report for BODC series reference number 930773
9307852009-02-04 02:31 53° 22' 13" N  3° 19' 51" W  View metadata report for BODC series reference number 930785
9307972009-02-04 03:01 53° 22' 13" N  3° 19' 52" W  View metadata report for BODC series reference number 930797
9308042009-02-04 03:30 53° 22' 14" N  3° 19' 53" W  View metadata report for BODC series reference number 930804
9308162009-02-04 04:00 53° 22' 15" N  3° 19' 52" W  View metadata report for BODC series reference number 930816
9308282009-02-04 04:31 53° 22' 15" N  3° 19' 52" W  View metadata report for BODC series reference number 930828
9308412009-02-04 05:00 53° 22' 15" N  3° 19' 53" W  View metadata report for BODC series reference number 930841
9308532009-02-04 05:31 53° 22' 14" N  3° 19' 53" W  View metadata report for BODC series reference number 930853
9308652009-02-04 06:00 53° 22' 14" N  3° 19' 53" W  View metadata report for BODC series reference number 930865
9308772009-02-04 06:30 53° 22' 14" N  3° 19' 53" W  View metadata report for BODC series reference number 930877
9308892009-02-04 07:01 53° 22' 14" N  3° 19' 54" W  View metadata report for BODC series reference number 930889
9308902009-02-04 07:30 53° 22' 14" N  3° 19' 54" W  View metadata report for BODC series reference number 930890
9309082009-02-04 08:00 53° 22' 14" N  3° 19' 54" W  View metadata report for BODC series reference number 930908
Discrete samples 
94  CTD frame plus rosette samplerRaw suspended particulate material concentration sensor output
Density of the water column
Transmittance and attenuance of the water column
Visible waveband radiance and irradiance measurements in the water column
Electrical conductivity of the water column
Raw fluorometer output
Salinity of the water column
Concentration of suspended particulate material in the water column
Raw light meter output
Temperature of the water column
Dissolved oxygen parameters in the water column